sensor_id;sensor_type;location;lat;lon;timestamp;temperature;humidity
17849;DHT22;9050;48.746;9.232;2023-02-28T00:00:29;-1.90;99.90
17849;DHT22;9050;48.746;9.232;2023-02-28T00:02:56;-1.80;99.90
17849;DHT22;9050;48.746;9.232;2023-02-28T00:05:25;-1.90;99.90
17849;DHT22;9050;48.746;9.232;2023-02-28T00:07:52;-1.90;99.90
17849;DHT22;9050;48.746;9.232;2023-02-28T00:10:24;-1.90;99.90
17849;DHT22;9050;48.746;9.232;2023-02-28T00:12:59;-1.90;99.90
17849;DHT22;9050;48.746;9.232;2023-02-28T00:15:28;-1.90;99.90
17849;DHT22;9050;48.746;9.232;2023-02-28T00:17:55;-2.00;99.90
17849;DHT22;9050;48.746;9.232;2023-02-28T00:20:22;-2.00;99.90
17849;DHT22;9050;48.746;9.232;2023-02-28T00:22:51;-2.00;99.90
17849;DHT22;9050;48.746;9.232;2023-02-28T00:25:20;-2.10;99.90
17849;DHT22;9050;48.746;9.232;2023-02-28T00:27:47;-2.00;99.90
17849;DHT22;9050;48.746;9.232;2023-02-28T00:30:16;-2.00;99.90
17849;DHT22;9050;48.746;9.232;2023-02-28T00:32:44;-2.10;99.90
17849;DHT22;9050;48.746;9.232;2023-02-28T00:35:12;-2.10;99.90
17849;DHT22;9050;48.746;9.232;2023-02-28T00:37:39;-2.10;99.90
17849;DHT22;9050;48.746;9.232;2023-02-28T00:40:07;-2.20;99.90
17849;DHT22;9050;48.746;9.232;2023-02-28T00:42:35;-2.20;99.90
17849;DHT22;9050;48.746;9.232;2023-02-28T00:45:03;-2.20;99.90
17849;DHT22;9050;48.746;9.232;2023-02-28T00:47:30;-2.20;99.90
17849;DHT22;9050;48.746;9.232;2023-02-28T00:49:59;-2.30;99.90
17849;DHT22;9050;48.746;9.232;2023-02-28T00:52:26;-2.20;99.90
17849;DHT22;9050;48.746;9.232;2023-02-28T00:54:53;-2.20;99.90
17849;DHT22;9050;48.746;9.232;2023-02-28T00:57:20;-2.20;99.90
17849;DHT22;9050;48.746;9.232;2023-02-28T00:59:47;-2.30;99.90
17849;DHT22;9050;48.746;9.232;2023-02-28T01:02:13;-2.30;99.90
17849;DHT22;9050;48.746;9.232;2023-02-28T01:04:40;-2.30;99.90
17849;DHT22;9050;48.746;9.232;2023-02-28T01:07:09;-2.30;99.90
17849;DHT22;9050;48.746;9.232;2023-02-28T01:09:35;-2.40;99.90
17849;DHT22;9050;48.746;9.232;2023-02-28T01:12:03;-2.50;99.90
17849;DHT22;9050;48.746;9.232;2023-02-28T01:14:30;-2.50;99.90
17849;DHT22;9050;48.746;9.232;2023-02-28T01:16:56;-2.50;99.90
17849;DHT22;9050;48.746;9.232;2023-02-28T01:19:23;-2.40;99.90
17849;DHT22;9050;48.746;9.232;2023-02-28T01:21:50;-2.40;99.90
17849;DHT22;9050;48.746;9.232;2023-02-28T01:24:18;-2.40;99.90
17849;DHT22;9050;48.746;9.232;2023-02-28T01:26:46;-2.40;99.90
17849;DHT22;9050;48.746;9.232;2023-02-28T01:29:12;-2.50;99.90
17849;DHT22;9050;48.746;9.232;2023-02-28T01:31:39;-2.50;99.90
17849;DHT22;9050;48.746;9.232;2023-02-28T01:34:06;-2.40;99.90
17849;DHT22;9050;48.746;9.232;2023-02-28T01:36:33;-2.50;99.90
17849;DHT22;9050;48.746;9.232;2023-02-28T01:39:00;-2.40;99.90
17849;DHT22;9050;48.746;9.232;2023-02-28T01:41:30;-2.50;99.90
17849;DHT22;9050;48.746;9.232;2023-02-28T01:43:59;-2.40;99.90
17849;DHT22;9050;48.746;9.232;2023-02-28T01:46:29;-2.50;99.90
17849;DHT22;9050;48.746;9.232;2023-02-28T01:49:02;-2.50;99.90
17849;DHT22;9050;48.746;9.232;2023-02-28T01:51:35;-2.40;99.90
17849;DHT22;9050;48.746;9.232;2023-02-28T01:54:06;-2.40;99.90
17849;DHT22;9050;48.746;9.232;2023-02-28T01:56:44;-2.50;99.90
17849;DHT22;9050;48.746;9.232;2023-02-28T01:59:20;-2.40;99.90
17849;DHT22;9050;48.746;9.232;2023-02-28T02:01:48;-2.40;99.90
17849;DHT22;9050;48.746;9.232;2023-02-28T02:04:16;-2.40;99.90
17849;DHT22;9050;48.746;9.232;2023-02-28T02:06:45;-2.40;99.90
17849;DHT22;9050;48.746;9.232;2023-02-28T02:09:12;-2.40;99.90
17849;DHT22;9050;48.746;9.232;2023-02-28T02:11:43;-2.40;99.90
17849;DHT22;9050;48.746;9.232;2023-02-28T02:14:29;-2.30;99.90
17849;DHT22;9050;48.746;9.232;2023-02-28T02:17:07;-2.30;99.90
17849;DHT22;9050;48.746;9.232;2023-02-28T02:23:13;-2.30;99.90
17849;DHT22;9050;48.746;9.232;2023-02-28T02:25:50;-2.30;99.90
17849;DHT22;9050;48.746;9.232;2023-02-28T02:31:29;-2.30;99.90
17849;DHT22;9050;48.746;9.232;2023-02-28T02:37:10;-2.30;99.90
17849;DHT22;9050;48.746;9.232;2023-02-28T02:39:47;-2.20;99.90
17849;DHT22;9050;48.746;9.232;2023-02-28T02:42:19;-2.20;99.90
17849;DHT22;9050;48.746;9.232;2023-02-28T02:44:52;-2.20;99.90
17849;DHT22;9050;48.746;9.232;2023-02-28T02:47:24;-2.30;99.90
17849;DHT22;9050;48.746;9.232;2023-02-28T02:49:55;-2.20;99.90
17849;DHT22;9050;48.746;9.232;2023-02-28T02:52:29;-2.20;99.90
17849;DHT22;9050;48.746;9.232;2023-02-28T02:55:00;-2.10;99.90
17849;DHT22;9050;48.746;9.232;2023-02-28T02:57:34;-2.10;99.90
17849;DHT22;9050;48.746;9.232;2023-02-28T03:00:04;-2.00;99.90
17849;DHT22;9050;48.746;9.232;2023-02-28T03:02:34;-2.10;99.90
17849;DHT22;9050;48.746;9.232;2023-02-28T03:05:04;-2.10;99.90
17849;DHT22;9050;48.746;9.232;2023-02-28T03:07:34;-2.10;99.90
17849;DHT22;9050;48.746;9.232;2023-02-28T03:10:01;-2.10;99.90
17849;DHT22;9050;48.746;9.232;2023-02-28T03:12:32;-2.00;99.90
17849;DHT22;9050;48.746;9.232;2023-02-28T03:15:10;-2.00;99.90
17849;DHT22;9050;48.746;9.232;2023-02-28T03:18:01;-2.10;99.90
17849;DHT22;9050;48.746;9.232;2023-02-28T03:20:39;-2.10;99.90
17849;DHT22;9050;48.746;9.232;2023-02-28T03:23:17;-2.10;99.90
17849;DHT22;9050;48.746;9.232;2023-02-28T03:25:53;-2.10;99.90
17849;DHT22;9050;48.746;9.232;2023-02-28T03:28:28;-2.10;99.90
17849;DHT22;9050;48.746;9.232;2023-02-28T03:31:02;-2.00;99.90
17849;DHT22;9050;48.746;9.232;2023-02-28T03:33:34;-1.90;99.90
17849;DHT22;9050;48.746;9.232;2023-02-28T03:36:04;-1.90;99.90
17849;DHT22;9050;48.746;9.232;2023-02-28T03:38:38;-1.90;99.90
17849;DHT22;9050;48.746;9.232;2023-02-28T03:41:10;-2.00;99.90
17849;DHT22;9050;48.746;9.232;2023-02-28T03:43:43;-2.00;99.90
17849;DHT22;9050;48.746;9.232;2023-02-28T03:46:16;-2.00;99.90
17849;DHT22;9050;48.746;9.232;2023-02-28T03:48:51;-1.90;99.90
17849;DHT22;9050;48.746;9.232;2023-02-28T03:51:21;-1.90;99.90
17849;DHT22;9050;48.746;9.232;2023-02-28T03:53:53;-1.90;99.90
17849;DHT22;9050;48.746;9.232;2023-02-28T03:56:23;-1.80;99.90
17849;DHT22;9050;48.746;9.232;2023-02-28T03:58:55;-1.80;99.90
17849;DHT22;9050;48.746;9.232;2023-02-28T04:01:26;-1.80;99.90
17849;DHT22;9050;48.746;9.232;2023-02-28T04:03:54;-1.80;99.90
17849;DHT22;9050;48.746;9.232;2023-02-28T04:06:22;-1.80;99.90
17849;DHT22;9050;48.746;9.232;2023-02-28T04:08:51;-1.80;99.90
17849;DHT22;9050;48.746;9.232;2023-02-28T04:11:26;-1.90;99.90
17849;DHT22;9050;48.746;9.232;2023-02-28T04:13:54;-1.80;99.90
17849;DHT22;9050;48.746;9.232;2023-02-28T04:16:21;-1.80;99.90
17849;DHT22;9050;48.746;9.232;2023-02-28T04:18:48;-1.80;99.90
17849;DHT22;9050;48.746;9.232;2023-02-28T04:21:15;-1.80;99.90
17849;DHT22;9050;48.746;9.232;2023-02-28T04:23:46;-1.80;99.90
17849;DHT22;9050;48.746;9.232;2023-02-28T04:26:14;-1.70;99.90
17849;DHT22;9050;48.746;9.232;2023-02-28T04:28:41;-1.60;99.90
17849;DHT22;9050;48.746;9.232;2023-02-28T04:31:08;-1.70;99.90
17849;DHT22;9050;48.746;9.232;2023-02-28T04:33:36;-1.70;99.90
17849;DHT22;9050;48.746;9.232;2023-02-28T04:36:06;-1.80;99.90
17849;DHT22;9050;48.746;9.232;2023-02-28T04:38:34;-1.80;99.90
17849;DHT22;9050;48.746;9.232;2023-02-28T04:41:05;-1.70;99.90
17849;DHT22;9050;48.746;9.232;2023-02-28T04:43:37;-1.70;99.90
17849;DHT22;9050;48.746;9.232;2023-02-28T04:46:05;-1.70;99.90
17849;DHT22;9050;48.746;9.232;2023-02-28T04:48:33;-1.70;99.90
17849;DHT22;9050;48.746;9.232;2023-02-28T04:51:00;-1.70;99.90
17849;DHT22;9050;48.746;9.232;2023-02-28T04:53:28;-1.70;99.90
17849;DHT22;9050;48.746;9.232;2023-02-28T04:55:55;-1.70;99.90
17849;DHT22;9050;48.746;9.232;2023-02-28T04:58:22;-1.70;99.90
17849;DHT22;9050;48.746;9.232;2023-02-28T05:00:51;-1.60;99.90
17849;DHT22;9050;48.746;9.232;2023-02-28T05:03:18;-1.70;99.90
17849;DHT22;9050;48.746;9.232;2023-02-28T05:05:46;-1.70;99.90
17849;DHT22;9050;48.746;9.232;2023-02-28T05:08:13;-1.70;99.90
17849;DHT22;9050;48.746;9.232;2023-02-28T05:10:39;-1.70;99.90
17849;DHT22;9050;48.746;9.232;2023-02-28T05:13:06;-1.70;99.90
17849;DHT22;9050;48.746;9.232;2023-02-28T05:15:33;-1.70;99.90
17849;DHT22;9050;48.746;9.232;2023-02-28T05:18:01;-1.70;99.90
17849;DHT22;9050;48.746;9.232;2023-02-28T05:20:29;-1.70;99.90
17849;DHT22;9050;48.746;9.232;2023-02-28T05:22:57;-1.70;99.90
17849;DHT22;9050;48.746;9.232;2023-02-28T05:25:24;-1.70;99.90
17849;DHT22;9050;48.746;9.232;2023-02-28T05:27:51;-1.80;99.90
17849;DHT22;9050;48.746;9.232;2023-02-28T05:30:18;-1.80;99.90
17849;DHT22;9050;48.746;9.232;2023-02-28T05:32:50;-1.70;99.90
17849;DHT22;9050;48.746;9.232;2023-02-28T05:35:19;-1.70;99.90
17849;DHT22;9050;48.746;9.232;2023-02-28T05:37:47;-1.70;99.90
17849;DHT22;9050;48.746;9.232;2023-02-28T05:40:14;-1.70;99.90
17849;DHT22;9050;48.746;9.232;2023-02-28T05:42:41;-1.70;99.90
17849;DHT22;9050;48.746;9.232;2023-02-28T05:45:09;-1.60;99.90
17849;DHT22;9050;48.746;9.232;2023-02-28T05:47:41;-1.60;99.90
17849;DHT22;9050;48.746;9.232;2023-02-28T05:50:11;-1.60;99.90
17849;DHT22;9050;48.746;9.232;2023-02-28T05:52:39;-1.60;99.90
17849;DHT22;9050;48.746;9.232;2023-02-28T05:55:07;-1.60;99.90
17849;DHT22;9050;48.746;9.232;2023-02-28T05:57:33;-1.60;99.90
17849;DHT22;9050;48.746;9.232;2023-02-28T06:00:01;-1.60;99.90
17849;DHT22;9050;48.746;9.232;2023-02-28T06:02:27;-1.60;99.90
17849;DHT22;9050;48.746;9.232;2023-02-28T06:04:54;-1.60;99.90
17849;DHT22;9050;48.746;9.232;2023-02-28T06:07:21;-1.50;99.90
17849;DHT22;9050;48.746;9.232;2023-02-28T06:09:50;-1.50;99.90
17849;DHT22;9050;48.746;9.232;2023-02-28T06:12:17;-1.60;99.90
17849;DHT22;9050;48.746;9.232;2023-02-28T06:14:44;-1.60;99.90
17849;DHT22;9050;48.746;9.232;2023-02-28T06:17:11;-1.60;99.90
17849;DHT22;9050;48.746;9.232;2023-02-28T06:19:38;-1.60;99.90
17849;DHT22;9050;48.746;9.232;2023-02-28T06:22:06;-1.50;99.90
17849;DHT22;9050;48.746;9.232;2023-02-28T06:24:33;-1.50;99.90
17849;DHT22;9050;48.746;9.232;2023-02-28T06:27:02;-1.50;99.90
17849;DHT22;9050;48.746;9.232;2023-02-28T06:29:30;-1.50;99.90
17849;DHT22;9050;48.746;9.232;2023-02-28T06:31:57;-1.40;99.90
17849;DHT22;9050;48.746;9.232;2023-02-28T06:34:24;-1.40;99.90
17849;DHT22;9050;48.746;9.232;2023-02-28T06:36:52;-1.40;99.90
17849;DHT22;9050;48.746;9.232;2023-02-28T06:39:19;-1.20;99.90
17849;DHT22;9050;48.746;9.232;2023-02-28T06:41:47;-1.20;99.90
17849;DHT22;9050;48.746;9.232;2023-02-28T06:44:16;-1.30;99.90
17849;DHT22;9050;48.746;9.232;2023-02-28T06:46:44;-1.30;99.90
17849;DHT22;9050;48.746;9.232;2023-02-28T06:49:11;-1.20;99.90
17849;DHT22;9050;48.746;9.232;2023-02-28T06:51:40;-1.20;99.90
17849;DHT22;9050;48.746;9.232;2023-02-28T06:54:10;-1.10;99.90
17849;DHT22;9050;48.746;9.232;2023-02-28T06:56:38;-1.10;99.90
17849;DHT22;9050;48.746;9.232;2023-02-28T06:59:05;-1.10;99.90
17849;DHT22;9050;48.746;9.232;2023-02-28T07:01:36;-1.10;99.90
17849;DHT22;9050;48.746;9.232;2023-02-28T07:04:09;-1.00;99.90
17849;DHT22;9050;48.746;9.232;2023-02-28T07:06:36;-1.20;99.90
17849;DHT22;9050;48.746;9.232;2023-02-28T07:09:03;-1.10;99.90
17849;DHT22;9050;48.746;9.232;2023-02-28T07:11:30;-1.20;99.90
17849;DHT22;9050;48.746;9.232;2023-02-28T07:13:58;-1.10;99.90
17849;DHT22;9050;48.746;9.232;2023-02-28T07:16:25;-1.10;99.90
17849;DHT22;9050;48.746;9.232;2023-02-28T07:18:54;-1.10;99.90
17849;DHT22;9050;48.746;9.232;2023-02-28T07:21:21;-1.10;99.90
17849;DHT22;9050;48.746;9.232;2023-02-28T07:23:49;-1.00;99.90
17849;DHT22;9050;48.746;9.232;2023-02-28T07:26:18;-1.00;99.90
17849;DHT22;9050;48.746;9.232;2023-02-28T07:28:47;-1.00;99.90
17849;DHT22;9050;48.746;9.232;2023-02-28T07:31:15;-0.90;99.90
17849;DHT22;9050;48.746;9.232;2023-02-28T07:33:42;-0.90;99.90
17849;DHT22;9050;48.746;9.232;2023-02-28T07:36:13;-0.80;99.90
17849;DHT22;9050;48.746;9.232;2023-02-28T07:38:45;-0.90;99.90
17849;DHT22;9050;48.746;9.232;2023-02-28T07:41:13;-0.90;99.90
17849;DHT22;9050;48.746;9.232;2023-02-28T07:43:40;-0.90;99.90
17849;DHT22;9050;48.746;9.232;2023-02-28T07:46:09;-0.90;99.90
17849;DHT22;9050;48.746;9.232;2023-02-28T07:48:37;-0.90;99.90
17849;DHT22;9050;48.746;9.232;2023-02-28T07:51:04;-0.70;99.90
17849;DHT22;9050;48.746;9.232;2023-02-28T07:53:32;-0.60;99.90
17849;DHT22;9050;48.746;9.232;2023-02-28T07:56:01;-0.50;99.90
17849;DHT22;9050;48.746;9.232;2023-02-28T07:58:28;-0.70;99.90
17849;DHT22;9050;48.746;9.232;2023-02-28T08:00:56;-0.70;99.90
17849;DHT22;9050;48.746;9.232;2023-02-28T08:03:23;-0.60;99.90
17849;DHT22;9050;48.746;9.232;2023-02-28T08:05:50;-0.70;99.90
17849;DHT22;9050;48.746;9.232;2023-02-28T08:08:18;-0.60;99.90
17849;DHT22;9050;48.746;9.232;2023-02-28T08:10:47;-0.60;99.90
17849;DHT22;9050;48.746;9.232;2023-02-28T08:13:14;-0.50;99.90
17849;DHT22;9050;48.746;9.232;2023-02-28T08:15:41;-0.50;99.90
17849;DHT22;9050;48.746;9.232;2023-02-28T08:18:09;-0.60;99.90
17849;DHT22;9050;48.746;9.232;2023-02-28T08:20:36;-0.60;99.90
17849;DHT22;9050;48.746;9.232;2023-02-28T08:23:03;-0.70;99.90
17849;DHT22;9050;48.746;9.232;2023-02-28T08:25:30;-0.60;99.90
17849;DHT22;9050;48.746;9.232;2023-02-28T08:27:58;-0.60;99.90
17849;DHT22;9050;48.746;9.232;2023-02-28T08:30:25;-0.40;99.90
17849;DHT22;9050;48.746;9.232;2023-02-28T08:32:52;-0.30;99.90
17849;DHT22;9050;48.746;9.232;2023-02-28T08:35:19;-0.40;99.90
17849;DHT22;9050;48.746;9.232;2023-02-28T08:37:47;-0.30;99.90
17849;DHT22;9050;48.746;9.232;2023-02-28T08:40:14;-0.30;99.90
17849;DHT22;9050;48.746;9.232;2023-02-28T08:42:43;-0.30;99.90
17849;DHT22;9050;48.746;9.232;2023-02-28T08:45:13;-0.40;99.90
17849;DHT22;9050;48.746;9.232;2023-02-28T08:47:40;-0.50;99.90
17849;DHT22;9050;48.746;9.232;2023-02-28T08:50:08;-0.40;99.90
17849;DHT22;9050;48.746;9.232;2023-02-28T08:52:35;-0.40;99.90
17849;DHT22;9050;48.746;9.232;2023-02-28T08:55:04;-0.40;99.90
17849;DHT22;9050;48.746;9.232;2023-02-28T08:57:31;-0.40;99.90
17849;DHT22;9050;48.746;9.232;2023-02-28T08:59:58;-0.50;99.90
17849;DHT22;9050;48.746;9.232;2023-02-28T09:02:27;-0.30;99.90
17849;DHT22;9050;48.746;9.232;2023-02-28T09:04:54;-0.10;99.90
17849;DHT22;9050;48.746;9.232;2023-02-28T09:07:21;0.00;99.90
17849;DHT22;9050;48.746;9.232;2023-02-28T09:09:48;-0.10;99.90
17849;DHT22;9050;48.746;9.232;2023-02-28T09:12:20;-0.10;99.90
17849;DHT22;9050;48.746;9.232;2023-02-28T09:14:47;-0.20;99.90
17849;DHT22;9050;48.746;9.232;2023-02-28T09:17:14;0.00;99.90
17849;DHT22;9050;48.746;9.232;2023-02-28T09:19:43;0.00;99.90
17849;DHT22;9050;48.746;9.232;2023-02-28T09:22:10;0.00;99.90
17849;DHT22;9050;48.746;9.232;2023-02-28T09:24:37;0.00;99.90
17849;DHT22;9050;48.746;9.232;2023-02-28T09:27:05;0.20;99.90
17849;DHT22;9050;48.746;9.232;2023-02-28T09:29:33;0.10;99.90
17849;DHT22;9050;48.746;9.232;2023-02-28T09:32:00;0.30;99.90
17849;DHT22;9050;48.746;9.232;2023-02-28T09:34:27;0.20;99.90
17849;DHT22;9050;48.746;9.232;2023-02-28T09:36:57;0.30;99.90
17849;DHT22;9050;48.746;9.232;2023-02-28T09:39:24;0.50;99.90
17849;DHT22;9050;48.746;9.232;2023-02-28T09:41:53;0.60;99.90
17849;DHT22;9050;48.746;9.232;2023-02-28T09:44:27;0.70;99.90
17849;DHT22;9050;48.746;9.232;2023-02-28T09:46:57;0.50;99.90
17849;DHT22;9050;48.746;9.232;2023-02-28T09:49:31;0.50;99.90
17849;DHT22;9050;48.746;9.232;2023-02-28T09:52:02;0.70;99.90
17849;DHT22;9050;48.746;9.232;2023-02-28T09:54:32;0.70;99.90
17849;DHT22;9050;48.746;9.232;2023-02-28T09:57:01;0.80;99.90
17849;DHT22;9050;48.746;9.232;2023-02-28T09:59:48;0.90;99.90
17849;DHT22;9050;48.746;9.232;2023-02-28T10:03:00;0.80;99.90
17849;DHT22;9050;48.746;9.232;2023-02-28T10:05:34;0.90;99.90
17849;DHT22;9050;48.746;9.232;2023-02-28T10:08:10;0.70;99.90
17849;DHT22;9050;48.746;9.232;2023-02-28T10:10:40;0.70;99.90
17849;DHT22;9050;48.746;9.232;2023-02-28T10:13:15;0.60;99.90
17849;DHT22;9050;48.746;9.232;2023-02-28T10:15:49;0.70;99.90
17849;DHT22;9050;48.746;9.232;2023-02-28T10:18:21;0.80;99.90
17849;DHT22;9050;48.746;9.232;2023-02-28T10:20:50;0.80;99.90
17849;DHT22;9050;48.746;9.232;2023-02-28T10:23:21;1.00;99.90
17849;DHT22;9050;48.746;9.232;2023-02-28T10:25:54;1.10;99.90
17849;DHT22;9050;48.746;9.232;2023-02-28T10:28:22;0.90;99.90
17849;DHT22;9050;48.746;9.232;2023-02-28T10:30:53;1.00;99.90
17849;DHT22;9050;48.746;9.232;2023-02-28T10:33:23;1.00;99.90
17849;DHT22;9050;48.746;9.232;2023-02-28T10:35:51;1.40;99.90
17849;DHT22;9050;48.746;9.232;2023-02-28T10:38:22;1.30;99.90
17849;DHT22;9050;48.746;9.232;2023-02-28T10:40:52;1.50;99.90
17849;DHT22;9050;48.746;9.232;2023-02-28T10:43:29;1.80;99.90
17849;DHT22;9050;48.746;9.232;2023-02-28T10:45:58;1.70;99.90
17849;DHT22;9050;48.746;9.232;2023-02-28T10:48:37;1.60;99.90
17849;DHT22;9050;48.746;9.232;2023-02-28T10:51:06;1.70;99.90
17849;DHT22;9050;48.746;9.232;2023-02-28T10:53:38;1.70;99.90
17849;DHT22;9050;48.746;9.232;2023-02-28T10:56:15;2.00;99.90
17849;DHT22;9050;48.746;9.232;2023-02-28T10:58:49;2.00;99.90
17849;DHT22;9050;48.746;9.232;2023-02-28T11:01:18;1.70;99.90
17849;DHT22;9050;48.746;9.232;2023-02-28T11:03:45;1.90;99.90
17849;DHT22;9050;48.746;9.232;2023-02-28T11:06:23;2.00;99.90
17849;DHT22;9050;48.746;9.232;2023-02-28T11:08:55;2.10;99.90
17849;DHT22;9050;48.746;9.232;2023-02-28T11:11:25;2.10;99.90
17849;DHT22;9050;48.746;9.232;2023-02-28T11:13:55;2.10;99.90
17849;DHT22;9050;48.746;9.232;2023-02-28T11:16:32;2.10;99.90
17849;DHT22;9050;48.746;9.232;2023-02-28T11:19:00;2.00;99.90
17849;DHT22;9050;48.746;9.232;2023-02-28T11:21:31;2.00;99.90
17849;DHT22;9050;48.746;9.232;2023-02-28T11:24:03;1.70;99.90
17849;DHT22;9050;48.746;9.232;2023-02-28T11:26:39;1.70;99.90
17849;DHT22;9050;48.746;9.232;2023-02-28T11:29:18;1.70;99.90
17849;DHT22;9050;48.746;9.232;2023-02-28T11:32:05;1.70;99.90
17849;DHT22;9050;48.746;9.232;2023-02-28T11:34:34;1.90;99.90
17849;DHT22;9050;48.746;9.232;2023-02-28T11:37:03;2.00;99.90
17849;DHT22;9050;48.746;9.232;2023-02-28T11:39:33;2.30;99.90
17849;DHT22;9050;48.746;9.232;2023-02-28T11:42:37;2.50;99.90
17849;DHT22;9050;48.746;9.232;2023-02-28T11:45:19;2.90;99.90
17849;DHT22;9050;48.746;9.232;2023-02-28T11:47:53;2.90;99.90
17849;DHT22;9050;48.746;9.232;2023-02-28T11:50:37;3.00;99.90
17849;DHT22;9050;48.746;9.232;2023-02-28T11:53:14;2.90;99.90
17849;DHT22;9050;48.746;9.232;2023-02-28T11:55:45;3.30;99.90
17849;DHT22;9050;48.746;9.232;2023-02-28T11:58:27;3.00;99.90
17849;DHT22;9050;48.746;9.232;2023-02-28T12:01:14;3.30;99.90
17849;DHT22;9050;48.746;9.232;2023-02-28T12:03:46;3.10;99.90
17849;DHT22;9050;48.746;9.232;2023-02-28T12:06:25;3.20;99.90
17849;DHT22;9050;48.746;9.232;2023-02-28T12:09:05;3.10;99.90
17849;DHT22;9050;48.746;9.232;2023-02-28T12:11:50;3.10;99.90
17849;DHT22;9050;48.746;9.232;2023-02-28T12:14:40;3.20;99.90
17849;DHT22;9050;48.746;9.232;2023-02-28T12:17:22;3.30;99.90
17849;DHT22;9050;48.746;9.232;2023-02-28T12:19:59;3.50;99.90
17849;DHT22;9050;48.746;9.232;2023-02-28T12:22:30;3.40;99.90
17849;DHT22;9050;48.746;9.232;2023-02-28T12:25:42;3.50;99.90
17849;DHT22;9050;48.746;9.232;2023-02-28T12:28:15;3.80;99.90
17849;DHT22;9050;48.746;9.232;2023-02-28T12:30:50;4.00;99.90
17849;DHT22;9050;48.746;9.232;2023-02-28T12:33:23;4.10;99.90
17849;DHT22;9050;48.746;9.232;2023-02-28T12:35:54;3.90;99.90
17849;DHT22;9050;48.746;9.232;2023-02-28T12:38:23;3.80;99.90
17849;DHT22;9050;48.746;9.232;2023-02-28T12:40:56;3.50;99.90
17849;DHT22;9050;48.746;9.232;2023-02-28T12:43:29;3.20;99.90
17849;DHT22;9050;48.746;9.232;2023-02-28T12:46:00;3.40;99.90
17849;DHT22;9050;48.746;9.232;2023-02-28T12:48:35;3.40;99.90
17849;DHT22;9050;48.746;9.232;2023-02-28T12:51:05;3.50;99.90
17849;DHT22;9050;48.746;9.232;2023-02-28T12:53:47;3.40;99.90
17849;DHT22;9050;48.746;9.232;2023-02-28T12:56:19;3.20;99.90
17849;DHT22;9050;48.746;9.232;2023-02-28T12:58:53;3.20;99.90
17849;DHT22;9050;48.746;9.232;2023-02-28T13:01:42;3.40;99.90
17849;DHT22;9050;48.746;9.232;2023-02-28T13:04:40;3.60;99.90
17849;DHT22;9050;48.746;9.232;2023-02-28T13:10:07;4.10;99.90
17849;DHT22;9050;48.746;9.232;2023-02-28T13:12:34;4.10;99.90
17849;DHT22;9050;48.746;9.232;2023-02-28T13:15:07;3.90;99.90
17849;DHT22;9050;48.746;9.232;2023-02-28T13:17:39;3.70;99.90
17849;DHT22;9050;48.746;9.232;2023-02-28T13:20:16;3.80;99.90
17849;DHT22;9050;48.746;9.232;2023-02-28T13:22:47;3.80;99.90
17849;DHT22;9050;48.746;9.232;2023-02-28T13:31:20;4.00;99.90
17849;DHT22;9050;48.746;9.232;2023-02-28T13:34:13;4.00;99.90
17849;DHT22;9050;48.746;9.232;2023-02-28T13:36:40;4.00;99.90
17849;DHT22;9050;48.746;9.232;2023-02-28T13:42:30;4.10;99.90
17849;DHT22;9050;48.746;9.232;2023-02-28T13:45:22;4.00;99.90
17849;DHT22;9050;48.746;9.232;2023-02-28T13:47:58;4.30;99.90
17849;DHT22;9050;48.746;9.232;2023-02-28T13:50:32;4.40;99.90
17849;DHT22;9050;48.746;9.232;2023-02-28T13:56:28;4.40;99.90
17849;DHT22;9050;48.746;9.232;2023-02-28T13:59:05;4.30;99.90
17849;DHT22;9050;48.746;9.232;2023-02-28T14:01:45;4.30;99.90
17849;DHT22;9050;48.746;9.232;2023-02-28T14:04:54;4.30;99.90
17849;DHT22;9050;48.746;9.232;2023-02-28T14:07:26;4.40;99.90
17849;DHT22;9050;48.746;9.232;2023-02-28T14:10:01;4.50;99.90
17849;DHT22;9050;48.746;9.232;2023-02-28T14:15:43;4.60;99.90
17849;DHT22;9050;48.746;9.232;2023-02-28T14:18:21;4.50;99.90
17849;DHT22;9050;48.746;9.232;2023-02-28T14:20:54;4.50;99.90
17849;DHT22;9050;48.746;9.232;2023-02-28T14:26:36;4.60;99.90
17849;DHT22;9050;48.746;9.232;2023-02-28T14:29:23;4.60;99.90
17849;DHT22;9050;48.746;9.232;2023-02-28T14:31:57;4.60;99.90
17849;DHT22;9050;48.746;9.232;2023-02-28T14:34:36;4.50;99.90
17849;DHT22;9050;48.746;9.232;2023-02-28T14:37:13;4.70;99.90
17849;DHT22;9050;48.746;9.232;2023-02-28T14:39:43;4.80;99.90
17849;DHT22;9050;48.746;9.232;2023-02-28T14:42:27;4.90;99.90
17849;DHT22;9050;48.746;9.232;2023-02-28T14:44:54;4.90;99.90
17849;DHT22;9050;48.746;9.232;2023-02-28T14:47:25;4.80;99.90
17849;DHT22;9050;48.746;9.232;2023-02-28T14:49:53;4.80;99.90
17849;DHT22;9050;48.746;9.232;2023-02-28T14:52:23;4.60;99.90
17849;DHT22;9050;48.746;9.232;2023-02-28T14:54:54;4.70;99.90
17849;DHT22;9050;48.746;9.232;2023-02-28T14:57:23;4.70;99.90
17849;DHT22;9050;48.746;9.232;2023-02-28T14:59:59;4.70;99.90
17849;DHT22;9050;48.746;9.232;2023-02-28T15:02:30;4.80;99.90
17849;DHT22;9050;48.746;9.232;2023-02-28T15:04:59;4.70;99.90
17849;DHT22;9050;48.746;9.232;2023-02-28T15:07:27;4.60;99.90
17849;DHT22;9050;48.746;9.232;2023-02-28T15:10:18;4.60;99.90
17849;DHT22;9050;48.746;9.232;2023-02-28T15:12:52;4.60;99.90
17849;DHT22;9050;48.746;9.232;2023-02-28T15:15:20;4.50;99.90
17849;DHT22;9050;48.746;9.232;2023-02-28T15:17:51;4.50;99.90
17849;DHT22;9050;48.746;9.232;2023-02-28T15:20:19;4.30;99.90
17849;DHT22;9050;48.746;9.232;2023-02-28T15:22:50;4.30;99.90
17849;DHT22;9050;48.746;9.232;2023-02-28T15:25:21;4.40;99.90
17849;DHT22;9050;48.746;9.232;2023-02-28T15:27:50;4.50;99.90
17849;DHT22;9050;48.746;9.232;2023-02-28T15:30:24;4.50;99.90
17849;DHT22;9050;48.746;9.232;2023-02-28T15:33:07;4.40;99.90
17849;DHT22;9050;48.746;9.232;2023-02-28T15:35:37;4.50;99.90
17849;DHT22;9050;48.746;9.232;2023-02-28T15:38:15;4.50;99.90
17849;DHT22;9050;48.746;9.232;2023-02-28T15:40:44;4.50;99.90
17849;DHT22;9050;48.746;9.232;2023-02-28T15:43:29;4.50;99.90
17849;DHT22;9050;48.746;9.232;2023-02-28T15:46:00;4.50;99.90
17849;DHT22;9050;48.746;9.232;2023-02-28T15:48:29;4.50;99.90
17849;DHT22;9050;48.746;9.232;2023-02-28T15:51:01;4.40;99.90
17849;DHT22;9050;48.746;9.232;2023-02-28T15:53:32;4.40;99.90
17849;DHT22;9050;48.746;9.232;2023-02-28T15:56:02;4.40;99.90
17849;DHT22;9050;48.746;9.232;2023-02-28T15:58:30;4.30;99.90
17849;DHT22;9050;48.746;9.232;2023-02-28T16:01:19;4.30;99.90
17849;DHT22;9050;48.746;9.232;2023-02-28T22:07:34;0.10;99.90
17849;DHT22;9050;48.746;9.232;2023-02-28T22:10:01;0.30;99.90
17849;DHT22;9050;48.746;9.232;2023-02-28T22:12:29;0.30;99.90
17849;DHT22;9050;48.746;9.232;2023-02-28T22:14:57;0.30;99.90
17849;DHT22;9050;48.746;9.232;2023-02-28T22:17:24;0.30;99.90
17849;DHT22;9050;48.746;9.232;2023-02-28T22:19:51;0.30;99.90
17849;DHT22;9050;48.746;9.232;2023-02-28T22:22:17;0.40;99.90
17849;DHT22;9050;48.746;9.232;2023-02-28T22:24:46;0.40;99.90
17849;DHT22;9050;48.746;9.232;2023-02-28T22:27:13;0.40;99.90
17849;DHT22;9050;48.746;9.232;2023-02-28T22:29:40;0.40;99.90
17849;DHT22;9050;48.746;9.232;2023-02-28T22:32:07;0.30;99.90
17849;DHT22;9050;48.746;9.232;2023-02-28T22:34:35;0.20;99.90
17849;DHT22;9050;48.746;9.232;2023-02-28T22:37:02;0.20;99.90
17849;DHT22;9050;48.746;9.232;2023-02-28T22:39:29;0.10;99.90
17849;DHT22;9050;48.746;9.232;2023-02-28T22:41:57;0.10;99.90
17849;DHT22;9050;48.746;9.232;2023-02-28T22:44:24;0.10;99.90
17849;DHT22;9050;48.746;9.232;2023-02-28T22:46:57;0.00;99.90
17849;DHT22;9050;48.746;9.232;2023-02-28T22:49:24;0.00;99.90
17849;DHT22;9050;48.746;9.232;2023-02-28T22:51:51;-0.10;99.90